HomeShort term forecast

Short term forecast

Graphical weather forecast for the next 48 hours for Montreal:
Short term forecast
This weather forecast is automatically refreshed every 3 hours.

Hourly Experimental Forecast for the next 48 hours

Overall summary: Mostly cloudy until tomorrow night.

 Date & Hour   Temp   Feel   Baro   Hum   Speed & Bearing   Wind Gust   Precip.%   Precip.   Visibility   Cloud cover   Conditions 
 24/10/2018 - 00:00  4.4°C  1.2°C  1016.2 hPa  73%  13.8 km/h   30.5 km/h  9%  0.03 mm/h  16.1km  82%  Mostly Cloudy 
 24/10/2018 - 01:00  4.3°C  0.7°C  1016.0 hPa  76%  16.3 km/h   35.2 km/h  8%  0.05 mm/h  16.1km  88%  Mostly Cloudy 
 24/10/2018 - 02:00  3.9°C  0.0°C  1016.1 hPa  78%  17.5 km/h   37.8 km/h  10%  0.07 mm/h  16.1km  96%  Overcast 
 24/10/2018 - 03:00  3.3°C  -0.7°C  1016.4 hPa  81%  17.5 km/h   38.6 km/h  27%  0.24 mm/h  16.1km  97%  Overcast 
 24/10/2018 - 04:00  2.7°C  -1.5°C  1016.6 hPa  85%  17.7 km/h   38.7 km/h  42%  0.51 mm/h  16.1km  100%  Overcast 
 24/10/2018 - 05:00  2.2°C  -2.1°C  1016.8 hPa  89%  17.4 km/h   38.6 km/h  39%  0.37 mm/h  16.1km  99%  Overcast 
 24/10/2018 - 06:00  1.8°C  -2.5°C  1017.3 hPa  92%  17.1 km/h   38.4 km/h  42%  0.38 mm/h  13.3km  100%  Overcast 
 24/10/2018 - 07:00  1.8°C  -2.4°C  1017.8 hPa  92%  16.9 km/h   37.9 km/h  47%  0.43 mm/h  6.7km  98%  Overcast 
 24/10/2018 - 08:00  2.1°C  -1.9°C  1018.6 hPa  90%  16.1 km/h   36.4 km/h  41%  0.29 mm/h  2.9km  97%  Foggy 
 24/10/2018 - 09:00  3.0°C  -0.8°C  1019.2 hPa  85%  15.4 km/h   34.1 km/h  32%  0.17 mm/h  6.2km  89%  Mostly Cloudy 
 24/10/2018 - 10:00  3.7°C  0.2°C  1019.7 hPa  81%  14.9 km/h   29.8 km/h  20%  0.11 mm/h  9.2km  83%  Mostly Cloudy 
 24/10/2018 - 11:00  4.6°C  1.5°C  1020.0 hPa  76%  13.8 km/h   26.0 km/h  12%  0.07 mm/h  13.6km  76%  Mostly Cloudy 
 24/10/2018 - 12:00  5.8°C  3.0°C  1020.0 hPa  70%  12.8 km/h   22.2 km/h  5%  0.03 mm/h  16.1km  65%  Mostly Cloudy 
 24/10/2018 - 13:00  6.9°C  4.5°C  1019.6 hPa  62%  12.4 km/h   20.7 km/h  3%  0.02 mm/h  16.1km  71%  Mostly Cloudy 
 24/10/2018 - 14:00  7.9°C  5.7°C  1019.4 hPa  57%  12.2 km/h   18.6 km/h  3%  0.03 mm/h  16.1km  58%  Partly Cloudy 
 24/10/2018 - 15:00  8.4°C  6.5°C  1019.3 hPa  54%  11.6 km/h   16.6 km/h  4%  0.04 mm/h  16.1km  51%  Partly Cloudy 
 24/10/2018 - 16:00  8.9°C  7.2°C  1019.1 hPa  51%  10.7 km/h   15.0 km/h  3%  0.03 mm/h  16.1km  39%  Partly Cloudy 
 24/10/2018 - 17:00  8.8°C  7.1°C  1019.2 hPa  51%  10.3 km/h   14.2 km/h  3%  0.03 mm/h  16.1km  33%  Partly Cloudy 
 24/10/2018 - 18:00  8.0°C  6.1°C  1019.5 hPa  54%  11.0 km/h   15.1 km/h  2%  0.01 mm/h  16.1km  34%  Partly Cloudy 
 24/10/2018 - 19:00  6.8°C  4.6°C  1019.9 hPa  58%  11.2 km/h   17.7 km/h  0%  --  16.1km  23%  Clear 
 24/10/2018 - 20:00  5.8°C  3.5°C  1020.1 hPa  62%  10.6 km/h   20.6 km/h  2%  0.01 mm/h  16.1km  22%  Clear 
 24/10/2018 - 21:00  5.2°C  2.6°C  1020.2 hPa  65%  11.5 km/h   23.4 km/h  0%  --  16.1km  32%  Partly Cloudy 
 24/10/2018 - 22:00  4.8°C  1.9°C  1020.2 hPa  68%  12.2 km/h   25.7 km/h  0%  --  16.1km  54%  Partly Cloudy 
 24/10/2018 - 23:00  4.4°C  1.4°C  1020.2 hPa  69%  12.7 km/h   26.8 km/h  0%  --  16.1km  65%  Mostly Cloudy 
 25/10/2018 - 00:00  4.3°C  1.2°C  1020.2 hPa  70%  12.9 km/h   25.9 km/h  0%  --  16.1km  74%  Mostly Cloudy 
 25/10/2018 - 01:00  4.1°C  1.0°C  1020.0 hPa  71%  12.8 km/h   24.0 km/h  2%  0.01 mm/h  16.1km  72%  Mostly Cloudy 
 25/10/2018 - 02:00  3.8°C  0.7°C  1019.9 hPa  71%  12.5 km/h   22.7 km/h  3%  0.02 mm/h  16.1km  82%  Mostly Cloudy 
 25/10/2018 - 03:00  3.6°C  0.5°C  1020.0 hPa  71%  12.2 km/h   23.1 km/h  3%  0.03 mm/h  16.1km  89%  Mostly Cloudy 
 25/10/2018 - 04:00  3.1°C  -0.2°C  1019.9 hPa  72%  12.7 km/h   24.3 km/h  4%  0.04 mm/h  16.1km  95%  Overcast 
 25/10/2018 - 05:00  2.5°C  -1.0°C  1019.8 hPa  73%  13.3 km/h   25.4 km/h  4%  0.04 mm/h  16.1km  96%  Overcast 
 25/10/2018 - 06:00  1.5°C  -2.4°C  1020.0 hPa  75%  14.3 km/h   26.0 km/h  3%  0.03 mm/h  16.1km  90%  Mostly Cloudy 
 25/10/2018 - 07:00  0.7°C  -3.5°C  1020.1 hPa  76%  14.7 km/h   26.5 km/h  2%  0.01 mm/h  16.1km  82%  Mostly Cloudy 
 25/10/2018 - 08:00  0.3°C  -4.0°C  1020.3 hPa  75%  15.2 km/h   26.5 km/h  0%  --  16.1km  72%  Mostly Cloudy 
 25/10/2018 - 09:00  0.6°C  -4.0°C  1019.7 hPa  71%  16.7 km/h   25.6 km/h  0%  --  16.1km  57%  Partly Cloudy 
 25/10/2018 - 10:00  1.3°C  -3.4°C  1019.7 hPa  65%  18.4 km/h   24.2 km/h  0%  --  16.1km  42%  Partly Cloudy 
 25/10/2018 - 11:00  2.4°C  -2.2°C  1019.5 hPa  58%  19.9 km/h   23.4 km/h  0%  --  16.1km  29%  Partly Cloudy 
 25/10/2018 - 12:00  3.3°C  -1.2°C  1019.1 hPa  51%  21.0 km/h   23.9 km/h  0%  --  16.1km  23%  Clear 
 25/10/2018 - 13:00  4.4°C  0.1°C  1018.5 hPa  45%  21.7 km/h   25.1 km/h  0%  --  16.1km  19%  Clear 
 25/10/2018 - 14:00  5.0°C  0.8°C  1018.1 hPa  42%  22.1 km/h   26.3 km/h  0%  --  16.1km  15%  Clear 
 25/10/2018 - 15:00  5.3°C  1.2°C  1017.7 hPa  41%  22.1 km/h   27.4 km/h  0%  --  16.1km  9%  Clear 
 25/10/2018 - 16:00  5.3°C  1.3°C  1017.3 hPa  41%  21.7 km/h   28.5 km/h  0%  --  16.1km  4%  Clear 
 25/10/2018 - 17:00  5.0°C  1.0°C  1017.3 hPa  43%  20.9 km/h   29.3 km/h  0%  --  16.1km  0%  Clear 
 25/10/2018 - 18:00  4.3°C  0.3°C  1017.5 hPa  45%  19.4 km/h   30.0 km/h  0%  --  16.1km  0%  Clear 
 25/10/2018 - 19:00  3.4°C  -0.6°C  1018.1 hPa  48%  17.5 km/h   30.5 km/h  0%  --  16.1km  0%  Clear 
 25/10/2018 - 20:00  2.6°C  -1.4°C  1018.5 hPa  52%  15.7 km/h   30.1 km/h  0%  --  16.1km  0%  Clear 
 25/10/2018 - 21:00  2.1°C  -1.7°C  1018.6 hPa  54%  14.2 km/h   28.1 km/h  0%  --  16.1km  0%  Clear 
 25/10/2018 - 22:00  1.7°C  -1.9°C  1018.5 hPa  56%  12.9 km/h   25.2 km/h  0%  --  16.1km  0%  Clear 
 25/10/2018 - 23:00  1.5°C  -2.0°C  1018.5 hPa  58%  11.8 km/h   22.4 km/h  0%  --  16.1km  0%  Clear 
Test

 

Past weather and reports

Past weatherFind in this section the past weather conditions, weather archive, graphics, reports and statistics.

Current conditions

Current weather condition for MontrealAll you need to know about the current weather conditions for Montreal. Weather data is updated every 10 minutes.

Weather forecast

Current Montreal weatherSince 2004, celinium.com website has provided accurate weather forecast for Montreal's island.